Taneytown, Maryland
Current Conditions -  °F | °C
As of 3:20 AM on Monday 22 Dec 2014 (Local Time) from KDMW Reporting Station
Haze Haze  
Wind Chill: -6°   Ceiling: Unl
Heat Index: -6°   Visibility: 5mi
Dew Point: -8°   Wind: 0mph
Humidity: 86%   Direction: NA
Pressure: 30.28"   Gusts: NA
Location:  39.66°N, 77.17°W
Report Text: KDMW 220820Z AUTO 00000KT 5SM BR CLR M06/M08 A3028 RMK AO2
Loading
Personal Weather Stations






























Interactive Weather Map New forecast layout! Learn more

10-Day Weather Forecast

Advertisements
Track Severe Weather on mobile